sensor_id;sensor_type;location;lat;lon;timestamp;temperature;humidity
10042;DHT22;5061;49.068;12.058;2022-11-03T00:00:05;8.40;99.90
10042;DHT22;5061;49.068;12.058;2022-11-03T00:03:26;8.40;99.90
10042;DHT22;5061;49.068;12.058;2022-11-03T00:06:50;8.40;99.90
10042;DHT22;5061;49.068;12.058;2022-11-03T00:10:11;8.40;99.90
10042;DHT22;5061;49.068;12.058;2022-11-03T00:13:31;8.40;99.90
10042;DHT22;5061;49.068;12.058;2022-11-03T00:16:53;8.40;99.90
10042;DHT22;5061;49.068;12.058;2022-11-03T00:20:13;8.40;99.90
10042;DHT22;5061;49.068;12.058;2022-11-03T00:23:36;8.40;99.90
10042;DHT22;5061;49.068;12.058;2022-11-03T00:26:57;8.30;99.90
10042;DHT22;5061;49.068;12.058;2022-11-03T00:30:18;8.30;99.90
10042;DHT22;5061;49.068;12.058;2022-11-03T00:33:39;8.30;99.90
10042;DHT22;5061;49.068;12.058;2022-11-03T00:37:00;8.20;99.90
10042;DHT22;5061;49.068;12.058;2022-11-03T00:40:20;8.20;99.90
10042;DHT22;5061;49.068;12.058;2022-11-03T00:43:41;8.10;99.90
10042;DHT22;5061;49.068;12.058;2022-11-03T00:47:01;8.00;99.90
10042;DHT22;5061;49.068;12.058;2022-11-03T00:50:22;8.00;99.90
10042;DHT22;5061;49.068;12.058;2022-11-03T00:53:45;8.00;99.90
10042;DHT22;5061;49.068;12.058;2022-11-03T00:57:06;8.00;99.90
10042;DHT22;5061;49.068;12.058;2022-11-03T01:00:26;8.10;99.90
10042;DHT22;5061;49.068;12.058;2022-11-03T01:03:49;8.00;99.90
10042;DHT22;5061;49.068;12.058;2022-11-03T01:07:28;8.10;99.90
10042;DHT22;5061;49.068;12.058;2022-11-03T01:10:49;8.10;99.90
10042;DHT22;5061;49.068;12.058;2022-11-03T01:14:46;8.10;99.90
10042;DHT22;5061;49.068;12.058;2022-11-03T01:18:08;8.00;99.90
10042;DHT22;5061;49.068;12.058;2022-11-03T01:21:29;8.00;99.90
10042;DHT22;5061;49.068;12.058;2022-11-03T01:24:49;8.00;99.90
10042;DHT22;5061;49.068;12.058;2022-11-03T01:28:13;8.00;99.90
10042;DHT22;5061;49.068;12.058;2022-11-03T01:31:34;7.90;99.90
10042;DHT22;5061;49.068;12.058;2022-11-03T01:34:54;7.90;99.90
10042;DHT22;5061;49.068;12.058;2022-11-03T01:38:15;7.90;99.90
10042;DHT22;5061;49.068;12.058;2022-11-03T01:41:35;7.90;99.90
10042;DHT22;5061;49.068;12.058;2022-11-03T01:44:56;7.90;99.90
10042;DHT22;5061;49.068;12.058;2022-11-03T01:48:18;7.90;99.90
10042;DHT22;5061;49.068;12.058;2022-11-03T01:51:40;7.80;99.90
10042;DHT22;5061;49.068;12.058;2022-11-03T01:55:20;7.80;99.90
10042;DHT22;5061;49.068;12.058;2022-11-03T01:58:42;7.80;99.90
10042;DHT22;5061;49.068;12.058;2022-11-03T02:02:04;7.80;99.90
10042;DHT22;5061;49.068;12.058;2022-11-03T02:05:26;7.80;99.90
10042;DHT22;5061;49.068;12.058;2022-11-03T02:08:55;7.70;99.90
10042;DHT22;5061;49.068;12.058;2022-11-03T02:12:19;7.70;99.90
10042;DHT22;5061;49.068;12.058;2022-11-03T02:15:41;7.70;99.90
10042;DHT22;5061;49.068;12.058;2022-11-03T02:19:03;7.70;99.90
10042;DHT22;5061;49.068;12.058;2022-11-03T02:25:55;7.60;99.90
10042;DHT22;5061;49.068;12.058;2022-11-03T02:29:17;7.60;99.90
10042;DHT22;5061;49.068;12.058;2022-11-03T02:32:57;7.60;99.90
10042;DHT22;5061;49.068;12.058;2022-11-03T02:39:46;7.60;99.90
10042;DHT22;5061;49.068;12.058;2022-11-03T02:43:08;7.60;99.90
10042;DHT22;5061;49.068;12.058;2022-11-03T02:46:31;7.50;99.90
10042;DHT22;5061;49.068;12.058;2022-11-03T02:49:53;7.50;99.90
10042;DHT22;5061;49.068;12.058;2022-11-03T02:53:15;7.50;99.90
10042;DHT22;5061;49.068;12.058;2022-11-03T02:56:42;7.50;99.90
10042;DHT22;5061;49.068;12.058;2022-11-03T03:00:06;7.50;99.90
10042;DHT22;5061;49.068;12.058;2022-11-03T03:03:38;7.40;99.90
10042;DHT22;5061;49.068;12.058;2022-11-03T03:07:03;7.40;99.90
10042;DHT22;5061;49.068;12.058;2022-11-03T03:10:28;7.40;99.90
10042;DHT22;5061;49.068;12.058;2022-11-03T03:13:50;7.40;99.90
10042;DHT22;5061;49.068;12.058;2022-11-03T03:20:41;7.30;99.90
10042;DHT22;5061;49.068;12.058;2022-11-03T03:24:30;7.30;99.90
10042;DHT22;5061;49.068;12.058;2022-11-03T03:27:58;7.30;99.90
10042;DHT22;5061;49.068;12.058;2022-11-03T03:31:21;7.30;99.90
10042;DHT22;5061;49.068;12.058;2022-11-03T03:34:46;7.20;99.90
10042;DHT22;5061;49.068;12.058;2022-11-03T03:38:15;7.20;99.90
10042;DHT22;5061;49.068;12.058;2022-11-03T03:41:37;7.20;99.90
10042;DHT22;5061;49.068;12.058;2022-11-03T03:44:59;7.20;99.90
10042;DHT22;5061;49.068;12.058;2022-11-03T03:48:20;7.10;99.90
10042;DHT22;5061;49.068;12.058;2022-11-03T03:51:42;7.10;99.90
10042;DHT22;5061;49.068;12.058;2022-11-03T03:55:03;7.10;99.90
10042;DHT22;5061;49.068;12.058;2022-11-03T03:58:25;7.10;99.90
10042;DHT22;5061;49.068;12.058;2022-11-03T04:01:46;7.10;99.90
10042;DHT22;5061;49.068;12.058;2022-11-03T04:05:07;7.10;99.90
10042;DHT22;5061;49.068;12.058;2022-11-03T04:08:27;7.10;99.90
10042;DHT22;5061;49.068;12.058;2022-11-03T04:11:48;7.10;99.90
10042;DHT22;5061;49.068;12.058;2022-11-03T04:15:28;7.10;99.90
10042;DHT22;5061;49.068;12.058;2022-11-03T04:19:10;7.00;99.90
10042;DHT22;5061;49.068;12.058;2022-11-03T04:22:49;7.00;99.90
10042;DHT22;5061;49.068;12.058;2022-11-03T04:26:13;7.00;99.90
10042;DHT22;5061;49.068;12.058;2022-11-03T04:29:34;7.00;99.90
10042;DHT22;5061;49.068;12.058;2022-11-03T04:32:55;6.90;99.90
10042;DHT22;5061;49.068;12.058;2022-11-03T04:36:21;6.90;99.90
10042;DHT22;5061;49.068;12.058;2022-11-03T04:39:42;6.90;99.90
10042;DHT22;5061;49.068;12.058;2022-11-03T04:43:05;6.90;99.90
10042;DHT22;5061;49.068;12.058;2022-11-03T04:46:30;6.80;99.90
10042;DHT22;5061;49.068;12.058;2022-11-03T04:49:51;6.90;99.90
10042;DHT22;5061;49.068;12.058;2022-11-03T04:53:13;6.80;99.90
10042;DHT22;5061;49.068;12.058;2022-11-03T04:56:34;6.80;99.90
10042;DHT22;5061;49.068;12.058;2022-11-03T04:59:55;6.80;99.90
10042;DHT22;5061;49.068;12.058;2022-11-03T05:03:35;6.80;99.90
10042;DHT22;5061;49.068;12.058;2022-11-03T05:06:56;6.70;99.90
10042;DHT22;5061;49.068;12.058;2022-11-03T05:10:19;6.80;99.90
10042;DHT22;5061;49.068;12.058;2022-11-03T05:13:42;6.70;99.90
10042;DHT22;5061;49.068;12.058;2022-11-03T05:17:13;6.80;99.90
10042;DHT22;5061;49.068;12.058;2022-11-03T05:21:03;6.70;99.90
10042;DHT22;5061;49.068;12.058;2022-11-03T05:24:22;6.80;99.90
10042;DHT22;5061;49.068;12.058;2022-11-03T05:27:45;6.80;99.90
10042;DHT22;5061;49.068;12.058;2022-11-03T05:34:49;6.70;99.90
10042;DHT22;5061;49.068;12.058;2022-11-03T05:38:14;6.70;99.90
10042;DHT22;5061;49.068;12.058;2022-11-03T05:41:35;6.70;99.90
10042;DHT22;5061;49.068;12.058;2022-11-03T05:44:57;6.70;99.90
10042;DHT22;5061;49.068;12.058;2022-11-03T05:51:45;6.70;99.90
10042;DHT22;5061;49.068;12.058;2022-11-03T05:58:41;6.60;99.90
10042;DHT22;5061;49.068;12.058;2022-11-03T06:05:42;6.60;99.90
10042;DHT22;5061;49.068;12.058;2022-11-03T06:09:14;6.70;99.90
10042;DHT22;5061;49.068;12.058;2022-11-03T06:12:36;6.60;99.90
10042;DHT22;5061;49.068;12.058;2022-11-03T06:16:03;6.60;99.90
10042;DHT22;5061;49.068;12.058;2022-11-03T06:19:36;6.60;99.90
10042;DHT22;5061;49.068;12.058;2022-11-03T06:22:59;6.60;99.90
10042;DHT22;5061;49.068;12.058;2022-11-03T06:26:25;6.60;99.90
10042;DHT22;5061;49.068;12.058;2022-11-03T06:29:51;6.60;99.90
10042;DHT22;5061;49.068;12.058;2022-11-03T06:33:17;6.50;99.90
10042;DHT22;5061;49.068;12.058;2022-11-03T06:36:38;6.60;99.90
10042;DHT22;5061;49.068;12.058;2022-11-03T06:43:45;6.60;99.90
10042;DHT22;5061;49.068;12.058;2022-11-03T06:47:23;6.60;99.90
10042;DHT22;5061;49.068;12.058;2022-11-03T06:50:44;6.60;99.90
10042;DHT22;5061;49.068;12.058;2022-11-03T06:54:05;6.60;99.90
10042;DHT22;5061;49.068;12.058;2022-11-03T06:57:33;6.60;99.90
10042;DHT22;5061;49.068;12.058;2022-11-03T07:00:57;6.60;99.90
10042;DHT22;5061;49.068;12.058;2022-11-03T07:04:21;6.60;99.90
10042;DHT22;5061;49.068;12.058;2022-11-03T07:07:42;6.60;99.90
10042;DHT22;5061;49.068;12.058;2022-11-03T07:14:33;6.70;99.90
10042;DHT22;5061;49.068;12.058;2022-11-03T07:17:54;6.70;99.90
10042;DHT22;5061;49.068;12.058;2022-11-03T07:21:44;6.70;99.90
10042;DHT22;5061;49.068;12.058;2022-11-03T07:25:12;6.70;99.90
10042;DHT22;5061;49.068;12.058;2022-11-03T07:28:34;6.70;99.90
10042;DHT22;5061;49.068;12.058;2022-11-03T07:31:58;6.70;99.90
10042;DHT22;5061;49.068;12.058;2022-11-03T07:35:23;6.70;99.90
10042;DHT22;5061;49.068;12.058;2022-11-03T07:38:47;6.80;99.90
10042;DHT22;5061;49.068;12.058;2022-11-03T07:42:20;6.80;99.90
10042;DHT22;5061;49.068;12.058;2022-11-03T07:45:49;6.80;99.90
10042;DHT22;5061;49.068;12.058;2022-11-03T07:49:25;6.80;99.90
10042;DHT22;5061;49.068;12.058;2022-11-03T07:52:46;6.80;99.90
10042;DHT22;5061;49.068;12.058;2022-11-03T07:56:28;6.80;99.90
10042;DHT22;5061;49.068;12.058;2022-11-03T07:59:52;6.80;99.90
10042;DHT22;5061;49.068;12.058;2022-11-03T08:03:26;6.80;99.90
10042;DHT22;5061;49.068;12.058;2022-11-03T08:06:47;6.80;99.90
10042;DHT22;5061;49.068;12.058;2022-11-03T08:10:09;6.80;99.90
10042;DHT22;5061;49.068;12.058;2022-11-03T08:13:29;6.80;99.90
10042;DHT22;5061;49.068;12.058;2022-11-03T08:16:50;6.80;99.90
10042;DHT22;5061;49.068;12.058;2022-11-03T08:20:11;6.90;99.90
10042;DHT22;5061;49.068;12.058;2022-11-03T08:23:32;6.80;99.90
10042;DHT22;5061;49.068;12.058;2022-11-03T08:26:52;6.90;99.90
10042;DHT22;5061;49.068;12.058;2022-11-03T08:30:13;6.90;99.90
10042;DHT22;5061;49.068;12.058;2022-11-03T08:33:34;6.90;99.90
10042;DHT22;5061;49.068;12.058;2022-11-03T08:36:54;6.80;99.90
10042;DHT22;5061;49.068;12.058;2022-11-03T08:40:15;6.90;99.90
10042;DHT22;5061;49.068;12.058;2022-11-03T08:43:36;6.90;99.90
10042;DHT22;5061;49.068;12.058;2022-11-03T08:46:56;6.90;99.90
10042;DHT22;5061;49.068;12.058;2022-11-03T08:50:17;6.90;99.90
10042;DHT22;5061;49.068;12.058;2022-11-03T08:53:38;7.00;99.90
10042;DHT22;5061;49.068;12.058;2022-11-03T08:56:59;7.10;99.90
10042;DHT22;5061;49.068;12.058;2022-11-03T09:00:20;7.10;99.90
10042;DHT22;5061;49.068;12.058;2022-11-03T09:03:42;7.20;99.90
10042;DHT22;5061;49.068;12.058;2022-11-03T09:07:02;7.20;99.90
10042;DHT22;5061;49.068;12.058;2022-11-03T09:10:23;7.20;99.90
10042;DHT22;5061;49.068;12.058;2022-11-03T09:13:43;7.20;99.90
10042;DHT22;5061;49.068;12.058;2022-11-03T09:17:04;7.30;99.90
10042;DHT22;5061;49.068;12.058;2022-11-03T09:20:25;7.30;99.90
10042;DHT22;5061;49.068;12.058;2022-11-03T09:23:46;7.30;99.90
10042;DHT22;5061;49.068;12.058;2022-11-03T09:27:07;7.40;99.90
10042;DHT22;5061;49.068;12.058;2022-11-03T09:30:28;7.40;99.90
10042;DHT22;5061;49.068;12.058;2022-11-03T09:33:48;7.50;99.90
10042;DHT22;5061;49.068;12.058;2022-11-03T09:37:09;7.50;99.90
10042;DHT22;5061;49.068;12.058;2022-11-03T09:40:29;7.50;99.90
10042;DHT22;5061;49.068;12.058;2022-11-03T09:43:50;7.60;99.90
10042;DHT22;5061;49.068;12.058;2022-11-03T09:47:27;7.60;99.90
10042;DHT22;5061;49.068;12.058;2022-11-03T09:50:51;7.70;99.90
10042;DHT22;5061;49.068;12.058;2022-11-03T09:54:15;7.80;99.90
10042;DHT22;5061;49.068;12.058;2022-11-03T09:57:36;7.70;99.90
10042;DHT22;5061;49.068;12.058;2022-11-03T10:00:57;7.70;99.90
10042;DHT22;5061;49.068;12.058;2022-11-03T10:04:26;7.70;99.90
10042;DHT22;5061;49.068;12.058;2022-11-03T10:07:48;7.70;99.90
10042;DHT22;5061;49.068;12.058;2022-11-03T10:11:08;7.60;99.90
10042;DHT22;5061;49.068;12.058;2022-11-03T10:14:29;7.70;99.90
10042;DHT22;5061;49.068;12.058;2022-11-03T10:17:50;7.60;99.90
10042;DHT22;5061;49.068;12.058;2022-11-03T10:21:15;7.60;99.90
10042;DHT22;5061;49.068;12.058;2022-11-03T10:24:37;7.60;99.90
10042;DHT22;5061;49.068;12.058;2022-11-03T10:28:20;7.60;99.90
10042;DHT22;5061;49.068;12.058;2022-11-03T10:31:41;7.60;99.90
10042;DHT22;5061;49.068;12.058;2022-11-03T10:35:32;7.70;99.90
10042;DHT22;5061;49.068;12.058;2022-11-03T10:38:53;7.70;99.90
10042;DHT22;5061;49.068;12.058;2022-11-03T10:45:40;7.80;99.90
10042;DHT22;5061;49.068;12.058;2022-11-03T10:49:04;7.80;99.90
10042;DHT22;5061;49.068;12.058;2022-11-03T10:52:26;7.90;99.90
10042;DHT22;5061;49.068;12.058;2022-11-03T10:55:49;7.90;99.90
10042;DHT22;5061;49.068;12.058;2022-11-03T11:02:36;8.00;99.90
10042;DHT22;5061;49.068;12.058;2022-11-03T11:05:59;8.10;99.90
10042;DHT22;5061;49.068;12.058;2022-11-03T11:09:25;8.20;99.90
10042;DHT22;5061;49.068;12.058;2022-11-03T11:16:52;8.30;99.90
10042;DHT22;5061;49.068;12.058;2022-11-03T11:20:49;8.40;99.90
10042;DHT22;5061;49.068;12.058;2022-11-03T11:24:03;8.50;99.90
10042;DHT22;5061;49.068;12.058;2022-11-03T11:31:30;8.60;99.90
10042;DHT22;5061;49.068;12.058;2022-11-03T11:34:51;8.60;99.90
10042;DHT22;5061;49.068;12.058;2022-11-03T11:42:16;8.70;99.90
10042;DHT22;5061;49.068;12.058;2022-11-03T11:49:35;8.80;99.90
10042;DHT22;5061;49.068;12.058;2022-11-03T11:56:27;9.00;99.90
10042;DHT22;5061;49.068;12.058;2022-11-03T11:59:48;9.00;99.90
10042;DHT22;5061;49.068;12.058;2022-11-03T12:03:13;9.10;99.90
10042;DHT22;5061;49.068;12.058;2022-11-03T12:06:36;9.20;99.90
10042;DHT22;5061;49.068;12.058;2022-11-03T12:10:18;9.20;99.90
10042;DHT22;5061;49.068;12.058;2022-11-03T12:20:45;9.40;99.90
10042;DHT22;5061;49.068;12.058;2022-11-03T12:27:46;9.60;99.90
10042;DHT22;5061;49.068;12.058;2022-11-03T12:31:06;9.60;99.90
10042;DHT22;5061;49.068;12.058;2022-11-03T12:34:27;9.70;99.90
10042;DHT22;5061;49.068;12.058;2022-11-03T12:37:47;9.80;99.90
10042;DHT22;5061;49.068;12.058;2022-11-03T12:41:08;9.80;99.90
10042;DHT22;5061;49.068;12.058;2022-11-03T12:44:41;10.00;99.90
10042;DHT22;5061;49.068;12.058;2022-11-03T12:48:01;10.00;99.90
10042;DHT22;5061;49.068;12.058;2022-11-03T12:51:23;10.20;99.90
10042;DHT22;5061;49.068;12.058;2022-11-03T12:54:45;10.30;99.90
10042;DHT22;5061;49.068;12.058;2022-11-03T12:58:05;10.40;99.90
10042;DHT22;5061;49.068;12.058;2022-11-03T13:01:26;10.50;99.90
10042;DHT22;5061;49.068;12.058;2022-11-03T13:04:46;10.60;99.90
10042;DHT22;5061;49.068;12.058;2022-11-03T13:08:07;10.70;99.90
10042;DHT22;5061;49.068;12.058;2022-11-03T13:11:28;10.70;99.90
10042;DHT22;5061;49.068;12.058;2022-11-03T13:15:07;10.80;99.90
10042;DHT22;5061;49.068;12.058;2022-11-03T13:18:29;10.80;99.90
10042;DHT22;5061;49.068;12.058;2022-11-03T13:21:50;10.90;99.90
10042;DHT22;5061;49.068;12.058;2022-11-03T13:25:11;10.90;99.90
10042;DHT22;5061;49.068;12.058;2022-11-03T13:28:31;11.00;99.90
10042;DHT22;5061;49.068;12.058;2022-11-03T13:31:52;11.00;99.90
10042;DHT22;5061;49.068;12.058;2022-11-03T13:35:13;11.00;99.90
10042;DHT22;5061;49.068;12.058;2022-11-03T13:38:34;11.10;99.90
10042;DHT22;5061;49.068;12.058;2022-11-03T13:41:54;11.00;99.90
10042;DHT22;5061;49.068;12.058;2022-11-03T13:45:15;11.10;99.90
10042;DHT22;5061;49.068;12.058;2022-11-03T13:48:35;11.10;99.90
10042;DHT22;5061;49.068;12.058;2022-11-03T13:51:56;11.10;99.90
10042;DHT22;5061;49.068;12.058;2022-11-03T13:55:17;11.10;99.90
10042;DHT22;5061;49.068;12.058;2022-11-03T13:58:37;11.10;99.90
10042;DHT22;5061;49.068;12.058;2022-11-03T14:01:58;11.10;99.90
10042;DHT22;5061;49.068;12.058;2022-11-03T14:05:19;11.10;99.90
10042;DHT22;5061;49.068;12.058;2022-11-03T14:08:39;11.00;99.90
10042;DHT22;5061;49.068;12.058;2022-11-03T14:12:00;11.00;99.90
10042;DHT22;5061;49.068;12.058;2022-11-03T14:15:39;11.00;99.90
10042;DHT22;5061;49.068;12.058;2022-11-03T14:19:00;11.00;99.90
10042;DHT22;5061;49.068;12.058;2022-11-03T14:22:21;11.00;99.90
10042;DHT22;5061;49.068;12.058;2022-11-03T14:25:43;10.90;99.90
10042;DHT22;5061;49.068;12.058;2022-11-03T14:29:03;10.90;99.90
10042;DHT22;5061;49.068;12.058;2022-11-03T14:32:24;10.90;99.90
10042;DHT22;5061;49.068;12.058;2022-11-03T14:35:44;10.90;99.90
10042;DHT22;5061;49.068;12.058;2022-11-03T14:39:05;10.90;99.90
10042;DHT22;5061;49.068;12.058;2022-11-03T14:42:25;10.90;99.90
10042;DHT22;5061;49.068;12.058;2022-11-03T14:45:46;10.90;99.90
10042;DHT22;5061;49.068;12.058;2022-11-03T14:49:07;10.80;99.90
10042;DHT22;5061;49.068;12.058;2022-11-03T14:52:28;10.80;99.90
10042;DHT22;5061;49.068;12.058;2022-11-03T14:55:49;10.80;99.90
10042;DHT22;5061;49.068;12.058;2022-11-03T14:59:09;10.70;99.90
10042;DHT22;5061;49.068;12.058;2022-11-03T15:02:30;10.70;99.90
10042;DHT22;5061;49.068;12.058;2022-11-03T15:05:50;10.70;99.90
10042;DHT22;5061;49.068;12.058;2022-11-03T15:09:13;10.60;99.90
10042;DHT22;5061;49.068;12.058;2022-11-03T15:12:34;10.60;99.90
10042;DHT22;5061;49.068;12.058;2022-11-03T15:15:55;10.60;99.90
10042;DHT22;5061;49.068;12.058;2022-11-03T15:19:16;10.60;99.90
10042;DHT22;5061;49.068;12.058;2022-11-03T15:22:36;10.50;99.90
10042;DHT22;5061;49.068;12.058;2022-11-03T15:25:57;10.50;99.90
10042;DHT22;5061;49.068;12.058;2022-11-03T15:29:17;10.50;99.90
10042;DHT22;5061;49.068;12.058;2022-11-03T15:32:38;10.50;99.90
10042;DHT22;5061;49.068;12.058;2022-11-03T15:35:59;10.50;99.90
10042;DHT22;5061;49.068;12.058;2022-11-03T15:39:20;10.40;99.90
10042;DHT22;5061;49.068;12.058;2022-11-03T15:42:40;10.40;99.90
10042;DHT22;5061;49.068;12.058;2022-11-03T15:46:01;10.30;99.90
10042;DHT22;5061;49.068;12.058;2022-11-03T15:49:22;10.30;99.90
10042;DHT22;5061;49.068;12.058;2022-11-03T15:52:42;10.20;99.90
10042;DHT22;5061;49.068;12.058;2022-11-03T15:56:03;10.10;99.90
10042;DHT22;5061;49.068;12.058;2022-11-03T15:59:24;10.10;99.90
10042;DHT22;5061;49.068;12.058;2022-11-03T16:02:45;10.00;99.90
10042;DHT22;5061;49.068;12.058;2022-11-03T16:06:06;10.00;99.90
10042;DHT22;5061;49.068;12.058;2022-11-03T16:09:27;10.00;99.90
10042;DHT22;5061;49.068;12.058;2022-11-03T16:12:48;9.90;99.90
10042;DHT22;5061;49.068;12.058;2022-11-03T16:16:08;9.90;99.90
10042;DHT22;5061;49.068;12.058;2022-11-03T16:19:29;9.90;99.90
10042;DHT22;5061;49.068;12.058;2022-11-03T16:22:49;9.80;99.90
10042;DHT22;5061;49.068;12.058;2022-11-03T16:26:10;9.80;99.90
10042;DHT22;5061;49.068;12.058;2022-11-03T16:29:31;9.80;99.90
10042;DHT22;5061;49.068;12.058;2022-11-03T16:32:51;9.80;99.90
10042;DHT22;5061;49.068;12.058;2022-11-03T16:36:12;9.70;99.90
10042;DHT22;5061;49.068;12.058;2022-11-03T16:39:33;9.70;99.90
10042;DHT22;5061;49.068;12.058;2022-11-03T16:42:54;9.70;99.90
10042;DHT22;5061;49.068;12.058;2022-11-03T16:46:15;9.70;99.90
10042;DHT22;5061;49.068;12.058;2022-11-03T16:49:35;9.70;99.90
10042;DHT22;5061;49.068;12.058;2022-11-03T16:53:00;9.70;99.90
10042;DHT22;5061;49.068;12.058;2022-11-03T16:56:22;9.60;99.90
10042;DHT22;5061;49.068;12.058;2022-11-03T16:59:43;9.60;99.90
10042;DHT22;5061;49.068;12.058;2022-11-03T17:03:04;9.60;99.90
10042;DHT22;5061;49.068;12.058;2022-11-03T17:06:24;9.60;99.90
10042;DHT22;5061;49.068;12.058;2022-11-03T17:09:45;9.60;99.90
10042;DHT22;5061;49.068;12.058;2022-11-03T17:13:05;9.60;99.90
10042;DHT22;5061;49.068;12.058;2022-11-03T17:16:26;9.60;99.90
10042;DHT22;5061;49.068;12.058;2022-11-03T17:19:46;9.60;99.90
10042;DHT22;5061;49.068;12.058;2022-11-03T17:23:07;9.60;99.90
10042;DHT22;5061;49.068;12.058;2022-11-03T17:26:35;9.60;99.90
10042;DHT22;5061;49.068;12.058;2022-11-03T17:30:00;9.60;99.90
10042;DHT22;5061;49.068;12.058;2022-11-03T17:33:23;9.60;99.90
10042;DHT22;5061;49.068;12.058;2022-11-03T17:36:43;9.60;99.90
10042;DHT22;5061;49.068;12.058;2022-11-03T17:40:09;9.60;99.90
10042;DHT22;5061;49.068;12.058;2022-11-03T17:43:33;9.60;99.90
10042;DHT22;5061;49.068;12.058;2022-11-03T17:46:57;9.60;99.90
10042;DHT22;5061;49.068;12.058;2022-11-03T17:50:22;9.60;99.90
10042;DHT22;5061;49.068;12.058;2022-11-03T17:53:43;9.60;99.90
10042;DHT22;5061;49.068;12.058;2022-11-03T17:57:06;9.60;99.90
10042;DHT22;5061;49.068;12.058;2022-11-03T18:00:27;9.60;99.90
10042;DHT22;5061;49.068;12.058;2022-11-03T18:03:48;9.60;99.90
10042;DHT22;5061;49.068;12.058;2022-11-03T18:07:28;9.60;99.90
10042;DHT22;5061;49.068;12.058;2022-11-03T18:10:51;9.60;99.90
10042;DHT22;5061;49.068;12.058;2022-11-03T18:14:12;9.60;99.90
10042;DHT22;5061;49.068;12.058;2022-11-03T18:17:33;9.60;99.90
10042;DHT22;5061;49.068;12.058;2022-11-03T18:20:54;9.60;99.90
10042;DHT22;5061;49.068;12.058;2022-11-03T18:24:16;9.60;99.90
10042;DHT22;5061;49.068;12.058;2022-11-03T18:27:37;9.60;99.90
10042;DHT22;5061;49.068;12.058;2022-11-03T18:30:58;9.60;99.90
10042;DHT22;5061;49.068;12.058;2022-11-03T18:34:24;9.60;99.90
10042;DHT22;5061;49.068;12.058;2022-11-03T18:37:45;9.60;99.90
10042;DHT22;5061;49.068;12.058;2022-11-03T18:41:11;9.60;99.90
10042;DHT22;5061;49.068;12.058;2022-11-03T18:44:52;9.60;99.90
10042;DHT22;5061;49.068;12.058;2022-11-03T18:48:13;9.60;99.90
10042;DHT22;5061;49.068;12.058;2022-11-03T18:51:39;9.60;99.90
10042;DHT22;5061;49.068;12.058;2022-11-03T18:55:03;9.60;99.90
10042;DHT22;5061;49.068;12.058;2022-11-03T18:58:24;9.60;99.90
10042;DHT22;5061;49.068;12.058;2022-11-03T19:01:45;9.60;99.90
10042;DHT22;5061;49.068;12.058;2022-11-03T19:05:07;9.60;99.90
10042;DHT22;5061;49.068;12.058;2022-11-03T19:08:30;9.60;99.90
10042;DHT22;5061;49.068;12.058;2022-11-03T19:11:55;9.60;99.90
10042;DHT22;5061;49.068;12.058;2022-11-03T19:15:18;9.60;99.90
10042;DHT22;5061;49.068;12.058;2022-11-03T19:18:39;9.60;99.90
10042;DHT22;5061;49.068;12.058;2022-11-03T19:22:00;9.60;99.90
10042;DHT22;5061;49.068;12.058;2022-11-03T19:25:21;9.60;99.90
10042;DHT22;5061;49.068;12.058;2022-11-03T19:28:42;9.50;99.90
10042;DHT22;5061;49.068;12.058;2022-11-03T19:32:04;9.60;99.90
10042;DHT22;5061;49.068;12.058;2022-11-03T19:35:31;9.50;99.90
10042;DHT22;5061;49.068;12.058;2022-11-03T19:38:52;9.50;99.90
10042;DHT22;5061;49.068;12.058;2022-11-03T19:42:24;9.50;99.90
10042;DHT22;5061;49.068;12.058;2022-11-03T19:45:48;9.50;99.90
10042;DHT22;5061;49.068;12.058;2022-11-03T19:49:13;9.50;99.90
10042;DHT22;5061;49.068;12.058;2022-11-03T19:52:34;9.50;99.90
10042;DHT22;5061;49.068;12.058;2022-11-03T19:55:55;9.50;99.90
10042;DHT22;5061;49.068;12.058;2022-11-03T19:59:16;9.50;99.90
10042;DHT22;5061;49.068;12.058;2022-11-03T20:02:37;9.40;99.90
10042;DHT22;5061;49.068;12.058;2022-11-03T20:05:58;9.40;99.90
10042;DHT22;5061;49.068;12.058;2022-11-03T20:09:20;9.40;99.90
10042;DHT22;5061;49.068;12.058;2022-11-03T20:12:42;9.40;99.90
10042;DHT22;5061;49.068;12.058;2022-11-03T20:16:08;9.40;99.90
10042;DHT22;5061;49.068;12.058;2022-11-03T20:19:29;9.40;99.90
10042;DHT22;5061;49.068;12.058;2022-11-03T20:22:57;9.40;99.90
10042;DHT22;5061;49.068;12.058;2022-11-03T20:26:21;9.40;99.90
10042;DHT22;5061;49.068;12.058;2022-11-03T20:29:42;9.40;99.90
10042;DHT22;5061;49.068;12.058;2022-11-03T20:33:03;9.40;99.90
10042;DHT22;5061;49.068;12.058;2022-11-03T20:36:23;9.40;99.90
10042;DHT22;5061;49.068;12.058;2022-11-03T20:39:45;9.40;99.90
10042;DHT22;5061;49.068;12.058;2022-11-03T20:43:19;9.40;99.90
10042;DHT22;5061;49.068;12.058;2022-11-03T20:46:41;9.40;99.90
10042;DHT22;5061;49.068;12.058;2022-11-03T20:50:03;9.40;99.90
10042;DHT22;5061;49.068;12.058;2022-11-03T20:53:24;9.40;99.90
10042;DHT22;5061;49.068;12.058;2022-11-03T20:56:46;9.40;99.90
10042;DHT22;5061;49.068;12.058;2022-11-03T21:00:15;9.40;99.90
10042;DHT22;5061;49.068;12.058;2022-11-03T21:03:36;9.40;99.90
10042;DHT22;5061;49.068;12.058;2022-11-03T21:06:56;9.50;99.90
10042;DHT22;5061;49.068;12.058;2022-11-03T21:10:18;9.40;99.90
10042;DHT22;5061;49.068;12.058;2022-11-03T21:13:39;9.40;99.90
10042;DHT22;5061;49.068;12.058;2022-11-03T21:16:59;9.40;99.90
10042;DHT22;5061;49.068;12.058;2022-11-03T21:20:38;9.40;99.90
10042;DHT22;5061;49.068;12.058;2022-11-03T21:23:59;9.40;99.90
10042;DHT22;5061;49.068;12.058;2022-11-03T21:27:20;9.40;99.90
10042;DHT22;5061;49.068;12.058;2022-11-03T21:30:41;9.40;99.90
10042;DHT22;5061;49.068;12.058;2022-11-03T21:34:04;9.40;99.90
10042;DHT22;5061;49.068;12.058;2022-11-03T21:37:25;9.40;99.90
10042;DHT22;5061;49.068;12.058;2022-11-03T21:40:48;9.40;99.90
10042;DHT22;5061;49.068;12.058;2022-11-03T21:44:09;9.40;99.90
10042;DHT22;5061;49.068;12.058;2022-11-03T21:47:35;9.40;99.90
10042;DHT22;5061;49.068;12.058;2022-11-03T21:51:00;9.40;99.90
10042;DHT22;5061;49.068;12.058;2022-11-03T21:54:23;9.40;99.90
10042;DHT22;5061;49.068;12.058;2022-11-03T21:57:44;9.40;99.90
10042;DHT22;5061;49.068;12.058;2022-11-03T22:01:05;9.40;99.90
10042;DHT22;5061;49.068;12.058;2022-11-03T22:04:26;9.40;99.90
10042;DHT22;5061;49.068;12.058;2022-11-03T22:07:46;9.40;99.90
10042;DHT22;5061;49.068;12.058;2022-11-03T22:11:07;9.40;99.90
10042;DHT22;5061;49.068;12.058;2022-11-03T22:14:43;9.40;99.90
10042;DHT22;5061;49.068;12.058;2022-11-03T22:18:22;9.40;99.90
10042;DHT22;5061;49.068;12.058;2022-11-03T22:21:43;9.40;99.90
10042;DHT22;5061;49.068;12.058;2022-11-03T22:25:22;9.30;99.90
10042;DHT22;5061;49.068;12.058;2022-11-03T22:29:01;9.30;99.90
10042;DHT22;5061;49.068;12.058;2022-11-03T22:32:40;9.30;99.90
10042;DHT22;5061;49.068;12.058;2022-11-03T22:36:01;9.30;99.90
10042;DHT22;5061;49.068;12.058;2022-11-03T22:39:39;9.30;99.90
10042;DHT22;5061;49.068;12.058;2022-11-03T22:43:18;9.20;99.90
10042;DHT22;5061;49.068;12.058;2022-11-03T22:46:58;9.20;99.90
10042;DHT22;5061;49.068;12.058;2022-11-03T22:50:18;9.30;99.90